Time;durP1;ratioP1;P1;durP2;ratioP2;P2;SDS_P1;SDS_P2;PMS_P1;PMS_P2;Temp;Humidity;BMP_temperature;BMP_pressure;BME280_temperature;BME280_humidity;BME280_pressure;Samples;Min_cycle;Max_cycle;Signal;HPM_P1;HPM_P2
2023/10/04 00:00:42;;;;;;;4.43;2.22;;;;;;;;;;5032763;28;20100;-60
2023/10/04 00:03:07;;;;;;;5.10;2.33;;;;;;;;;;5033295;28;20029;-61
2023/10/04 00:05:34;;;;;;;6.27;3.50;;;;;;;;;;5033367;28;20022;-61
2023/10/04 00:07:59;;;;;;;76.25;68.55;;;;;;;;;;5033109;28;21039;-60
2023/10/04 00:10:24;;;;;;;14.82;13.60;;;;;;;;;;5032681;28;20101;-61
2023/10/04 00:12:50;;;;;;;9.57;8.70;;;;;;;;;;5032870;28;20017;-61
2023/10/04 00:15:20;;;;;;;7.15;4.38;;;;;;;;;;5033015;28;20018;-61
2023/10/04 00:17:45;;;;;;;50.17;46.70;;;;;;;;;;5033331;28;20029;-60
2023/10/04 00:20:12;;;;;;;16.40;15.05;;;;;;;;;;5033228;28;20562;-61
2023/10/04 00:22:39;;;;;;;8.02;5.13;;;;;;;;;;5033572;28;20408;-61
2023/10/04 00:25:08;;;;;;;7.32;6.63;;;;;;;;;;5032678;28;20393;-61
2023/10/04 00:27:33;;;;;;;5.60;2.78;;;;;;;;;;5033640;28;20013;-60
2023/10/04 00:29:58;;;;;;;5.85;2.30;;;;;;;;;;5033174;28;20496;-60
2023/10/04 00:32:24;;;;;;;5.50;2.33;;;;;;;;;;5034275;28;20450;-61
2023/10/04 00:34:49;;;;;;;6.97;4.27;;;;;;;;;;5040436;28;20025;-62
2023/10/04 00:37:16;;;;;;;6.05;2.65;;;;;;;;;;5032734;28;20458;-61
2023/10/04 00:39:41;;;;;;;7.93;7.13;;;;;;;;;;5031629;28;20063;-61
2023/10/04 00:42:06;;;;;;;5.60;3.10;;;;;;;;;;5032405;28;20424;-60
2023/10/04 00:44:35;;;;;;;6.93;3.17;;;;;;;;;;5032249;28;20092;-60
2023/10/04 00:47:05;;;;;;;4.40;2.08;;;;;;;;;;5032338;28;20048;-61
2023/10/04 00:49:31;;;;;;;6.00;2.25;;;;;;;;;;5031544;28;20480;-60
2023/10/04 00:51:58;;;;;;;5.68;2.33;;;;;;;;;;5032316;28;20070;-60
2023/10/04 00:54:23;;;;;;;9.25;2.28;;;;;;;;;;5032139;28;20017;-60
2023/10/04 00:56:51;;;;;;;5.00;2.83;;;;;;;;;;5031891;28;20018;-60
2023/10/04 00:59:16;;;;;;;5.47;2.42;;;;;;;;;;5029659;28;20543;-61
2023/10/04 01:01:42;;;;;;;6.15;2.13;;;;;;;;;;5031919;28;20465;-61
2023/10/04 01:04:07;;;;;;;6.97;5.17;;;;;;;;;;5031781;28;20041;-60
2023/10/04 01:06:35;;;;;;;6.97;4.28;;;;;;;;;;5031824;28;20033;-59
2023/10/04 01:09:01;;;;;;;8.65;7.28;;;;;;;;;;5031754;28;20048;-60
2023/10/04 01:11:26;;;;;;;5.00;2.60;;;;;;;;;;5031193;28;20588;-61
2023/10/04 01:13:56;;;;;;;6.70;2.90;;;;;;;;;;5031611;28;20052;-61
2023/10/04 01:16:23;;;;;;;5.57;4.38;;;;;;;;;;5031714;28;20436;-61
2023/10/04 01:18:49;;;;;;;6.63;5.25;;;;;;;;;;5031348;28;20021;-62
2023/10/04 01:21:16;;;;;;;7.07;2.97;;;;;;;;;;5031218;28;20075;-61
2023/10/04 01:23:45;;;;;;;6.10;3.00;;;;;;;;;;5031594;28;20060;-61
2023/10/04 01:26:25;;;;;;;9.60;6.88;;;;;;;;;;5031292;28;20021;-61
2023/10/04 01:28:50;;;;;;;5.35;2.33;;;;;;;;;;5030081;28;20208;-61
2023/10/04 01:31:15;;;;;;;5.68;3.08;;;;;;;;;;5031000;28;20127;-61
2023/10/04 01:33:40;;;;;;;5.53;3.20;;;;;;;;;;5031561;28;20095;-60
2023/10/04 01:36:06;;;;;;;7.57;2.85;;;;;;;;;;5031515;28;20484;-61
2023/10/04 01:38:32;;;;;;;5.13;2.53;;;;;;;;;;5031339;28;20022;-60
2023/10/04 01:40:58;;;;;;;8.35;4.22;;;;;;;;;;5030711;28;20017;-62
2023/10/04 01:43:24;;;;;;;29.25;26.98;;;;;;;;;;5031210;28;20021;-61
2023/10/04 01:45:55;;;;;;;6.68;2.53;;;;;;;;;;5031461;28;20469;-61
2023/10/04 01:48:20;;;;;;;14.82;13.52;;;;;;;;;;5031250;28;20512;-61
2023/10/04 01:50:52;;;;;;;6.73;4.97;;;;;;;;;;5030565;28;20014;-62
2023/10/04 01:53:18;;;;;;;7.32;3.17;;;;;;;;;;5031231;28;20480;-61
2023/10/04 01:55:43;;;;;;;5.80;3.42;;;;;;;;;;5031069;28;20031;-59
2023/10/04 01:58:10;;;;;;;5.82;3.03;;;;;;;;;;5031181;28;20024;-60
2023/10/04 02:00:36;;;;;;;14.57;13.40;;;;;;;;;;5030730;28;20061;-60
2023/10/04 02:03:01;;;;;;;6.82;3.67;;;;;;;;;;5030837;28;20021;-62
2023/10/04 02:05:37;;;;;;;6.33;3.30;;;;;;;;;;5028564;28;20432;-61
2023/10/04 02:08:05;;;;;;;6.85;2.55;;;;;;;;;;5030807;28;20503;-62
2023/10/04 02:10:30;;;;;;;6.88;2.95;;;;;;;;;;5030332;28;20405;-61
2023/10/04 02:12:56;;;;;;;6.27;2.97;;;;;;;;;;5030969;28;20055;-61
2023/10/04 02:15:22;;;;;;;5.75;4.00;;;;;;;;;;5030637;28;20033;-60
2023/10/04 02:17:47;;;;;;;6.45;3.92;;;;;;;;;;5030736;28;20021;-61
2023/10/04 02:20:18;;;;;;;5.57;2.73;;;;;;;;;;5030351;28;20033;-61
2023/10/04 02:22:44;;;;;;;5.38;3.70;;;;;;;;;;5030804;28;20112;-60
2023/10/04 02:25:13;;;;;;;4.17;2.07;;;;;;;;;;5030855;28;20112;-61
2023/10/04 02:27:39;;;;;;;6.90;2.53;;;;;;;;;;5030635;28;20470;-61
2023/10/04 02:30:13;;;;;;;;;;;;;;;;;;5030836;28;20116;-61
2023/10/04 02:32:40;;;;;;;17.05;15.68;;;;;;;;;;5030689;28;19992;-61
2023/10/04 02:35:05;;;;;;;6.18;2.47;;;;;;;;;;5030291;28;20017;-60
2023/10/04 02:37:31;;;;;;;70.28;64.43;;;;;;;;;;5030620;28;20017;-61
2023/10/04 02:39:57;;;;;;;7.80;2.70;;;;;;;;;;5030220;28;20018;-60
2023/10/04 02:42:22;;;;;;;4.75;2.45;;;;;;;;;;5030489;28;20044;-60
2023/10/04 02:44:47;;;;;;;8.07;4.25;;;;;;;;;;5030444;28;20064;-60
2023/10/04 02:47:13;;;;;;;5.63;3.00;;;;;;;;;;5030555;28;20022;-61
2023/10/04 02:49:38;;;;;;;7.10;3.03;;;;;;;;;;5029916;28;20029;-62
2023/10/04 02:52:05;;;;;;;8.02;3.08;;;;;;;;;;5030653;28;20056;-61
2023/10/04 02:54:31;;;;;;;6.60;2.30;;;;;;;;;;5030405;28;20370;-60
2023/10/04 02:56:58;;;;;;;5.88;3.47;;;;;;;;;;5031054;28;20021;-61
2023/10/04 02:59:24;;;;;;;6.80;2.67;;;;;;;;;;5031088;28;20018;-60
2023/10/04 03:01:49;;;;;;;8.55;6.63;;;;;;;;;;5031674;28;20021;-60
2023/10/04 03:04:16;;;;;;;6.10;2.97;;;;;;;;;;5031809;28;20025;-61
2023/10/04 03:06:41;;;;;;;6.88;6.15;;;;;;;;;;5033869;28;20444;-60
2023/10/04 03:09:06;;;;;;;6.53;3.57;;;;;;;;;;5035422;28;20025;-61
2023/10/04 03:11:32;;;;;;;6.50;2.63;;;;;;;;;;5031988;28;20064;-61
2023/10/04 03:13:59;;;;;;;11.38;10.43;;;;;;;;;;5030901;28;20025;-60
2023/10/04 03:16:24;;;;;;;6.47;2.67;;;;;;;;;;5030992;28;20581;-61
2023/10/04 03:18:50;;;;;;;6.53;2.55;;;;;;;;;;5030367;28;20021;-61
2023/10/04 03:21:20;;;;;;;6.73;2.77;;;;;;;;;;5030981;28;20045;-62
2023/10/04 03:23:45;;;;;;;5.07;3.10;;;;;;;;;;5033359;28;20484;-61
2023/10/04 03:26:14;;;;;;;5.07;2.63;;;;;;;;;;5033880;28;20026;-60
2023/10/04 03:28:40;;;;;;;5.82;4.30;;;;;;;;;;5033940;28;20020;-61
2023/10/04 03:31:13;;;;;;;4.72;2.60;;;;;;;;;;5033070;28;20021;-60
2023/10/04 03:33:39;;;;;;;53.67;50.10;;;;;;;;;;5033360;28;20473;-60
2023/10/04 03:36:06;;;;;;;8.75;7.90;;;;;;;;;;5033573;28;20096;-61
2023/10/04 03:38:34;;;;;;;6.50;5.13;;;;;;;;;;5033849;28;20152;-60
2023/10/04 03:41:00;;;;;;;49.20;45.42;;;;;;;;;;5032983;28;20017;-59
2023/10/04 03:43:25;;;;;;;5.40;2.50;;;;;;;;;;5033486;28;20028;-61
2023/10/04 03:45:51;;;;;;;10.13;6.45;;;;;;;;;;5033479;28;20010;-60
2023/10/04 03:48:16;;;;;;;6.88;2.38;;;;;;;;;;5033714;28;20022;-61
2023/10/04 03:50:45;;;;;;;8.67;7.73;;;;;;;;;;5033114;28;20091;-60
2023/10/04 03:53:10;;;;;;;8.02;3.78;;;;;;;;;;5033463;28;20074;-60
2023/10/04 03:55:36;;;;;;;6.97;5.35;;;;;;;;;;5033488;28;20493;-61
2023/10/04 03:58:02;;;;;;;7.07;4.20;;;;;;;;;;5033140;28;20018;-61
2023/10/04 04:00:30;;;;;;;5.70;3.03;;;;;;;;;;5032603;28;20390;-60
2023/10/04 04:02:55;;;;;;;6.43;2.95;;;;;;;;;;5033079;28;20049;-59
2023/10/04 04:05:22;;;;;;;7.25;5.80;;;;;;;;;;5033115;28;20053;-60
2023/10/04 04:07:51;;;;;;;7.18;3.13;;;;;;;;;;5032966;28;20040;-59
2023/10/04 04:10:18;;;;;;;6.32;4.20;;;;;;;;;;5032534;28;20040;-59
2023/10/04 04:12:46;;;;;;;7.57;3.03;;;;;;;;;;5032403;28;20087;-59
2023/10/04 04:15:12;;;;;;;5.45;2.63;;;;;;;;;;5032728;28;20056;-59
2023/10/04 04:17:38;;;;;;;6.43;4.72;;;;;;;;;;5033045;28;20044;-60
2023/10/04 04:20:14;;;;;;;9.57;5.43;;;;;;;;;;5032104;28;20029;-60
2023/10/04 04:22:50;;;;;;;7.50;4.38;;;;;;;;;;5032736;28;20080;-60
2023/10/04 04:25:19;;;;;;;8.48;5.63;;;;;;;;;;5032399;28;20044;-59
2023/10/04 04:27:45;;;;;;;4.38;2.40;;;;;;;;;;5032523;28;20366;-61
2023/10/04 04:30:20;;;;;;;7.03;2.83;;;;;;;;;;5032049;28;20029;-61
2023/10/04 04:32:52;;;;;;;8.35;6.90;;;;;;;;;;5031415;28;20113;-60
2023/10/04 04:35:23;;;;;;;8.82;7.50;;;;;;;;;;5032269;28;20026;-61
2023/10/04 04:37:55;;;;;;;6.32;5.72;;;;;;;;;;5032415;28;20017;-61
2023/10/04 04:40:25;;;;;;;8.40;7.43;;;;;;;;;;5031907;28;20093;-61
2023/10/04 04:42:50;;;;;;;5.05;3.58;;;;;;;;;;5032277;28;20527;-61
2023/10/04 04:45:16;;;;;;;6.38;3.08;;;;;;;;;;5032064;28;20064;-60
2023/10/04 04:47:44;;;;;;;10.57;5.57;;;;;;;;;;5032102;28;20056;-61
2023/10/04 04:50:09;;;;;;;7.13;4.50;;;;;;;;;;5031580;28;20009;-60
2023/10/04 04:52:35;;;;;;;6.83;3.90;;;;;;;;;;5032003;28;20033;-60
2023/10/04 04:55:01;;;;;;;7.82;4.80;;;;;;;;;;5032204;28;20039;-61
2023/10/04 04:57:27;;;;;;;8.33;5.67;;;;;;;;;;5031978;28;20025;-58
2023/10/04 04:59:55;;;;;;;8.88;4.75;;;;;;;;;;5031626;28;20013;-58
2023/10/04 05:02:21;;;;;;;6.20;5.55;;;;;;;;;;5031926;28;20045;-58
2023/10/04 05:04:49;;;;;;;11.40;10.23;;;;;;;;;;5031831;28;20061;-61
2023/10/04 05:07:14;;;;;;;6.85;2.92;;;;;;;;;;5032020;28;20049;-59
2023/10/04 05:09:41;;;;;;;6.80;3.92;;;;;;;;;;5031302;28;20100;-61
2023/10/04 05:12:06;;;;;;;7.43;5.35;;;;;;;;;;5030245;28;20028;-60
2023/10/04 05:14:32;;;;;;;6.25;2.28;;;;;;;;;;5031874;28;20017;-59
2023/10/04 05:16:57;;;;;;;7.03;5.85;;;;;;;;;;5031704;28;20416;-61
2023/10/04 05:19:22;;;;;;;5.93;4.37;;;;;;;;;;5030662;28;20028;-59
2023/10/04 05:21:48;;;;;;;6.60;5.10;;;;;;;;;;5031406;28;20030;-60
2023/10/04 05:24:13;;;;;;;7.50;5.20;;;;;;;;;;5031689;28;20036;-60
2023/10/04 05:26:39;;;;;;;6.00;2.92;;;;;;;;;;5031762;28;20021;-60
2023/10/04 05:29:04;;;;;;;10.57;5.17;;;;;;;;;;5031071;28;20073;-60
2023/10/04 05:31:29;;;;;;;9.18;8.30;;;;;;;;;;5029626;28;20067;-61
2023/10/04 05:33:54;;;;;;;6.23;4.20;;;;;;;;;;5031230;28;20132;-61
2023/10/04 05:36:21;;;;;;;8.63;7.40;;;;;;;;;;5031343;28;20032;-60
2023/10/04 05:38:47;;;;;;;6.60;5.55;;;;;;;;;;5031483;28;20022;-59
2023/10/04 05:41:12;;;;;;;5.97;3.33;;;;;;;;;;5030750;28;20520;-60
2023/10/04 05:43:38;;;;;;;7.30;2.78;;;;;;;;;;5030938;28;20037;-60
2023/10/04 05:46:06;;;;;;;5.20;2.97;;;;;;;;;;5031233;28;20021;-60
2023/10/04 05:48:31;;;;;;;4.82;1.88;;;;;;;;;;5031246;28;20043;-59
2023/10/04 05:50:58;;;;;;;6.47;4.77;;;;;;;;;;5030523;28;20025;-60
2023/10/04 05:53:23;;;;;;;6.47;3.65;;;;;;;;;;5031213;28;20026;-60
2023/10/04 05:55:51;;;;;;;7.50;3.70;;;;;;;;;;5030966;28;20093;-59
2023/10/04 05:58:17;;;;;;;27.75;25.38;;;;;;;;;;5031220;28;20021;-59
2023/10/04 06:00:42;;;;;;;8.27;4.28;;;;;;;;;;5029370;28;20036;-60
2023/10/04 06:03:09;;;;;;;15.80;14.50;;;;;;;;;;5030434;28;20029;-61
2023/10/04 06:05:37;;;;;;;8.63;5.10;;;;;;;;;;5030820;28;20029;-59
2023/10/04 06:08:06;;;;;;;6.53;2.65;;;;;;;;;;5030846;28;20017;-61
2023/10/04 06:10:32;;;;;;;6.00;3.22;;;;;;;;;;5030559;28;20026;-61
2023/10/04 06:12:57;;;;;;;6.75;5.70;;;;;;;;;;5030765;28;20477;-59
2023/10/04 06:15:24;;;;;;;6.47;3.07;;;;;;;;;;5030530;28;20060;-60
2023/10/04 06:17:50;;;;;;;6.00;2.42;;;;;;;;;;5030705;28;20464;-58
2023/10/04 06:20:25;;;;;;;5.43;2.67;;;;;;;;;;5030184;28;20017;-61
2023/10/04 06:22:53;;;;;;;7.80;6.60;;;;;;;;;;5030934;28;20064;-60
2023/10/04 06:25:19;;;;;;;5.35;2.92;;;;;;;;;;5030791;28;20108;-61
2023/10/04 06:27:44;;;;;;;10.48;7.65;;;;;;;;;;5030918;28;20481;-61
2023/10/04 06:30:12;;;;;;;6.45;2.05;;;;;;;;;;5030828;28;20053;-60
2023/10/04 06:32:37;;;;;;;7.18;3.10;;;;;;;;;;5030122;28;20099;-60
2023/10/04 06:35:03;;;;;;;7.22;2.65;;;;;;;;;;5030849;28;20068;-60
2023/10/04 06:37:29;;;;;;;8.38;2.25;;;;;;;;;;5031228;28;20026;-61
2023/10/04 06:39:54;;;;;;;33.45;30.38;;;;;;;;;;5030719;28;20017;-60
2023/10/04 06:42:20;;;;;;;7.30;4.70;;;;;;;;;;5030449;28;20380;-60
2023/10/04 06:44:45;;;;;;;8.25;6.68;;;;;;;;;;5030558;28;20034;-60
2023/10/04 06:47:10;;;;;;;8.33;6.00;;;;;;;;;;5030907;28;20014;-61
2023/10/04 06:49:35;;;;;;;7.20;5.43;;;;;;;;;;5029965;28;20584;-60
2023/10/04 06:52:00;;;;;;;8.80;4.95;;;;;;;;;;5030365;28;20078;-61
2023/10/04 06:54:26;;;;;;;63.70;57.28;;;;;;;;;;5030212;28;20104;-59
2023/10/04 06:56:51;;;;;;;7.90;3.60;;;;;;;;;;5032278;28;20017;-60
2023/10/04 06:59:17;;;;;;;7.47;4.75;;;;;;;;;;5033819;28;20044;-60
2023/10/04 07:01:43;;;;;;;6.85;3.90;;;;;;;;;;5034227;28;20397;-60
2023/10/04 07:04:08;;;;;;;7.57;6.73;;;;;;;;;;5033932;28;20074;-59
2023/10/04 07:06:33;;;;;;;7.03;2.38;;;;;;;;;;5034451;28;20029;-60
2023/10/04 07:08:59;;;;;;;22.33;20.50;;;;;;;;;;5034270;28;20074;-60
2023/10/04 07:11:25;;;;;;;5.35;2.58;;;;;;;;;;5033810;28;20436;-60
2023/10/04 07:13:51;;;;;;;7.60;4.13;;;;;;;;;;5034019;28;20013;-59
2023/10/04 07:16:16;;;;;;;7.03;3.10;;;;;;;;;;5033136;28;20014;-60
2023/10/04 07:18:41;;;;;;;6.32;4.13;;;;;;;;;;5033606;28;20036;-61
2023/10/04 07:21:07;;;;;;;15.02;13.90;;;;;;;;;;5033494;28;20477;-60
2023/10/04 07:23:32;;;;;;;5.68;2.08;;;;;;;;;;5032467;28;20021;-60
2023/10/04 07:25:57;;;;;;;7.37;6.67;;;;;;;;;;5034172;28;20124;-60
2023/10/04 07:28:24;;;;;;;7.33;4.80;;;;;;;;;;5034139;28;20029;-60
2023/10/04 07:30:50;;;;;;;31.40;29.10;;;;;;;;;;5033883;28;20029;-60
2023/10/04 07:33:16;;;;;;;5.90;3.20;;;;;;;;;;5033788;28;20076;-60
2023/10/04 07:35:41;;;;;;;24.70;23.05;;;;;;;;;;5033936;28;20097;-60
2023/10/04 07:38:07;;;;;;;7.27;3.60;;;;;;;;;;5033646;28;20068;-60
2023/10/04 07:40:33;;;;;;;6.18;4.05;;;;;;;;;;5033254;28;20018;-60
2023/10/04 07:42:59;;;;;;;8.70;5.97;;;;;;;;;;5033722;28;20105;-60
2023/10/04 07:45:28;;;;;;;7.88;4.60;;;;;;;;;;5033269;28;20033;-60
2023/10/04 07:47:53;;;;;;;23.55;21.60;;;;;;;;;;5033648;28;20017;-59
2023/10/04 07:50:22;;;;;;;8.27;4.47;;;;;;;;;;5033209;28;20017;-60
2023/10/04 07:52:48;;;;;;;8.60;7.15;;;;;;;;;;5033237;28;20022;-61
2023/10/04 07:55:19;;;;;;;5.85;3.85;;;;;;;;;;5033192;28;20021;-60
2023/10/04 07:57:46;;;;;;;6.07;3.15;;;;;;;;;;5033352;28;20030;-60
2023/10/04 08:00:14;;;;;;;5.47;3.60;;;;;;;;;;5032741;28;20026;-61
2023/10/04 08:02:46;;;;;;;10.98;9.32;;;;;;;;;;5033245;28;20024;-60
2023/10/04 08:05:12;;;;;;;7.93;5.20;;;;;;;;;;5031951;28;20489;-60
2023/10/04 08:07:37;;;;;;;11.38;9.13;;;;;;;;;;5032838;28;20025;-60
2023/10/04 08:10:03;;;;;;;33.13;30.67;;;;;;;;;;5032348;28;20055;-60
2023/10/04 08:12:28;;;;;;;6.47;2.72;;;;;;;;;;5032932;28;20022;-59
2023/10/04 08:14:56;;;;;;;8.07;7.10;;;;;;;;;;5032910;28;20473;-60
2023/10/04 08:17:23;;;;;;;5.95;3.70;;;;;;;;;;5031237;28;20120;-61
2023/10/04 08:19:48;;;;;;;13.35;12.32;;;;;;;;;;5032134;28;20029;-60
2023/10/04 08:22:15;;;;;;;6.63;3.05;;;;;;;;;;5032880;28;20017;-61
2023/10/04 08:24:41;;;;;;;7.47;4.40;;;;;;;;;;5032165;28;20061;-61
2023/10/04 08:27:06;;;;;;;6.93;5.13;;;;;;;;;;5032722;28;20049;-59
2023/10/04 08:29:34;;;;;;;7.47;4.17;;;;;;;;;;5032205;28;20431;-60
2023/10/04 08:31:59;;;;;;;11.35;10.48;;;;;;;;;;5032838;28;20017;-60
2023/10/04 08:34:24;;;;;;;11.37;10.00;;;;;;;;;;5032317;28;20060;-59
2023/10/04 08:36:49;;;;;;;12.00;10.93;;;;;;;;;;5032680;28;20042;-60
2023/10/04 08:39:15;;;;;;;7.67;3.63;;;;;;;;;;5032047;28;20021;-61
2023/10/04 08:41:40;;;;;;;7.65;5.70;;;;;;;;;;5032499;28;20033;-59
2023/10/04 08:44:06;;;;;;;6.70;4.82;;;;;;;;;;5032216;28;20122;-60
2023/10/04 08:46:31;;;;;;;7.82;6.78;;;;;;;;;;5032180;28;20509;-60
2023/10/04 08:48:57;;;;;;;21.70;20.02;;;;;;;;;;5032215;28;20022;-61
2023/10/04 08:51:33;;;;;;;6.43;3.95;;;;;;;;;;5032075;28;20494;-59
2023/10/04 08:54:06;;;;;;;6.22;5.15;;;;;;;;;;5032168;28;20025;-61
2023/10/04 08:56:31;;;;;;;;;;;;;;;;;;5032734;28;20045;-60
2023/10/04 08:58:58;;;;;;;9.23;8.32;;;;;;;;;;5032072;28;20580;-61
2023/10/04 09:01:23;;;;;;;8.07;4.90;;;;;;;;;;5031726;28;20021;-60
2023/10/04 09:03:50;;;;;;;13.50;12.10;;;;;;;;;;5032220;28;20022;-60
2023/10/04 09:06:16;;;;;;;9.05;5.03;;;;;;;;;;5032777;28;20032;-60
2023/10/04 09:08:42;;;;;;;7.70;5.25;;;;;;;;;;5032103;28;20067;-60
2023/10/04 09:11:10;;;;;;;7.43;5.72;;;;;;;;;;5032410;28;20021;-60
2023/10/04 09:13:43;;;;;;;32.45;29.95;;;;;;;;;;5032990;28;20027;-59
2023/10/04 09:16:28;;;;;;;8.07;5.85;;;;;;;;;;5032015;28;20017;-60
2023/10/04 09:19:14;;;;;;;16.02;14.82;;;;;;;;;;5030954;28;20033;-61
2023/10/04 09:21:41;;;;;;;6.55;4.32;;;;;;;;;;5031859;28;20029;-59
2023/10/04 09:24:08;;;;;;;10.15;8.30;;;;;;;;;;5031552;28;20025;-60
2023/10/04 09:26:33;;;;;;;10.52;9.60;;;;;;;;;;5032124;28;20079;-59
2023/10/04 09:28:58;;;;;;;8.13;5.57;;;;;;;;;;5031582;28;20025;-60
2023/10/04 09:31:26;;;;;;;7.97;3.00;;;;;;;;;;5031152;28;20494;-61
2023/10/04 09:33:51;;;;;;;10.95;9.00;;;;;;;;;;5031468;28;20416;-59
2023/10/04 09:36:33;;;;;;;10.13;8.60;;;;;;;;;;5031537;28;20013;-61
2023/10/04 09:39:13;;;;;;;9.25;8.30;;;;;;;;;;5031419;28;20416;-60
2023/10/04 09:41:43;;;;;;;7.57;4.78;;;;;;;;;;5031204;28;20561;-61
2023/10/04 09:44:20;;;;;;;106.80;98.60;;;;;;;;;;5031040;28;20036;-60
2023/10/04 09:46:48;;;;;;;7.78;6.07;;;;;;;;;;5031227;28;20495;-59
2023/10/04 09:49:13;;;;;;;8.68;6.55;;;;;;;;;;5031033;28;20092;-60
2023/10/04 09:51:39;;;;;;;185.75;168.88;;;;;;;;;;5031292;28;20449;-60
2023/10/04 09:54:04;;;;;;;20.00;18.53;;;;;;;;;;5031143;28;20083;-60
2023/10/04 09:56:29;;;;;;;72.47;50.60;;;;;;;;;;5031172;28;20072;-59
2023/10/04 09:58:54;;;;;;;25.43;23.57;;;;;;;;;;5030918;28;20393;-59
2023/10/04 10:01:21;;;;;;;11.43;10.05;;;;;;;;;;5029554;28;20053;-60
2023/10/04 10:03:47;;;;;;;;;;;;;;;;;;5031689;28;20101;-60
2023/10/04 10:06:14;;;;;;;15.60;12.65;;;;;;;;;;5030964;28;19912;-60
2023/10/04 10:08:44;;;;;;;12.73;11.60;;;;;;;;;;5031238;28;20053;-60
2023/10/04 10:11:10;;;;;;;9.77;8.07;;;;;;;;;;5030599;28;20028;-59
2023/10/04 10:13:36;;;;;;;9.00;8.10;;;;;;;;;;5031014;28;20440;-60
2023/10/04 10:16:03;;;;;;;;;;;;;;;;;;5031161;28;20100;-60
2023/10/04 10:18:28;;;;;;;10.80;4.43;;;;;;;;;;5030807;28;19990;-60
2023/10/04 10:20:55;;;;;;;13.93;12.83;;;;;;;;;;5029132;28;20055;-60
2023/10/04 10:23:20;;;;;;;13.27;12.18;;;;;;;;;;5029607;28;20021;-60
2023/10/04 10:26:04;;;;;;;7.10;5.22;;;;;;;;;;5031134;28;20362;-60
2023/10/04 10:28:29;;;;;;;;;;;;;;;;;;5031436;28;20375;-59
2023/10/04 10:30:58;;;;;;;10.23;8.43;;;;;;;;;;5030759;28;19912;-59
2023/10/04 10:33:23;;;;;;;9.45;6.32;;;;;;;;;;5034729;28;20086;-61
2023/10/04 10:35:58;;;;;;;11.32;7.72;;;;;;;;;;5034771;28;20021;-62
2023/10/04 10:38:26;;;;;;;11.60;10.40;;;;;;;;;;5034566;28;20084;-61
2023/10/04 10:40:51;;;;;;;19.38;17.92;;;;;;;;;;5034140;28;20021;-60
2023/10/04 10:43:16;;;;;;;8.05;7.18;;;;;;;;;;5034469;28;20071;-61
2023/10/04 10:45:42;;;;;;;8.47;5.87;;;;;;;;;;5034181;28;20516;-61
2023/10/04 10:48:08;;;;;;;10.53;9.63;;;;;;;;;;5034652;28;20014;-61
2023/10/04 10:50:33;;;;;;;8.23;7.40;;;;;;;;;;5034335;28;20112;-59
2023/10/04 10:53:06;;;;;;;11.53;9.53;;;;;;;;;;5035464;28;20061;-59
2023/10/04 10:55:32;;;;;;;7.60;6.80;;;;;;;;;;5039060;28;20021;-60
2023/10/04 10:57:57;;;;;;;17.08;15.70;;;;;;;;;;5038129;28;20021;-58
2023/10/04 11:00:23;;;;;;;13.57;12.47;;;;;;;;;;5037890;28;20074;-61
2023/10/04 11:02:53;;;;;;;10.95;9.85;;;;;;;;;;5034764;28;20013;-60
2023/10/04 11:05:20;;;;;;;19.98;18.08;;;;;;;;;;5034449;28;20109;-60
2023/10/04 11:07:46;;;;;;;11.73;10.57;;;;;;;;;;5033009;28;20033;-59
2023/10/04 11:10:12;;;;;;;51.63;46.67;;;;;;;;;;5033656;28;20507;-59
2023/10/04 11:12:42;;;;;;;81.05;72.57;;;;;;;;;;5034149;28;20075;-59
2023/10/04 11:15:07;;;;;;;23.13;21.63;;;;;;;;;;5034004;28;20017;-60
2023/10/04 11:17:35;;;;;;;8.75;7.85;;;;;;;;;;5033807;28;20029;-60
2023/10/04 11:20:03;;;;;;;32.47;30.00;;;;;;;;;;5033437;28;20033;-61
2023/10/04 11:22:28;;;;;;;61.90;56.53;;;;;;;;;;5014103;28;20026;-59
2023/10/04 11:24:55;;;;;;;13.23;12.03;;;;;;;;;;5013964;28;20053;-57
2023/10/04 11:27:23;;;;;;;11.95;10.95;;;;;;;;;;5013775;28;20024;-59
2023/10/04 11:29:49;;;;;;;31.25;28.92;;;;;;;;;;5013535;28;20442;-58
2023/10/04 11:32:15;;;;;;;41.22;37.42;;;;;;;;;;5013597;28;20024;-59
2023/10/04 11:34:42;;;;;;;15.50;14.27;;;;;;;;;;5013699;28;20104;-59
2023/10/04 11:37:08;;;;;;;10.50;9.32;;;;;;;;;;5013877;28;20129;-59
2023/10/04 11:39:33;;;;;;;8.98;8.07;;;;;;;;;;5013199;28;20478;-59
2023/10/04 11:41:59;;;;;;;72.25;64.72;;;;;;;;;;5013232;28;20478;-58
2023/10/04 11:44:25;;;;;;;19.60;17.73;;;;;;;;;;5013464;28;20021;-59
2023/10/04 11:47:03;;;;;;;8.25;6.00;;;;;;;;;;5013532;28;20014;-60
2023/10/04 11:49:28;;;;;;;7.90;6.75;;;;;;;;;;5011483;28;20022;-60
2023/10/04 11:51:58;;;;;;;14.63;13.43;;;;;;;;;;5013608;28;20030;-60
2023/10/04 11:54:24;;;;;;;14.13;12.80;;;;;;;;;;5013192;28;20391;-60
2023/10/04 11:56:50;;;;;;;10.98;9.90;;;;;;;;;;5013103;28;20030;-59
2023/10/04 11:59:26;;;;;;;19.93;18.53;;;;;;;;;;5013021;28;20033;-59
2023/10/04 12:01:55;;;;;;;9.85;8.82;;;;;;;;;;5013301;28;20088;-59
2023/10/04 12:04:20;;;;;;;11.55;10.52;;;;;;;;;;5012995;28;20137;-60
2023/10/04 12:06:56;;;;;;;12.88;10.35;;;;;;;;;;5013112;28;20049;-60
2023/10/04 12:09:21;;;;;;;59.20;54.80;;;;;;;;;;5012654;28;20104;-57
2023/10/04 12:11:49;;;;;;;9.55;7.15;;;;;;;;;;5013236;28;20018;-59
2023/10/04 12:14:15;;;;;;;12.25;10.95;;;;;;;;;;5013054;28;20018;-58
2023/10/04 12:16:42;;;;;;;41.10;38.15;;;;;;;;;;5012733;28;20026;-59
2023/10/04 12:19:07;;;;;;;11.05;9.93;;;;;;;;;;5012632;28;20489;-59
2023/10/04 12:21:34;;;;;;;8.60;6.23;;;;;;;;;;5025023;28;20071;-59
2023/10/04 12:23:59;;;;;;;10.18;6.70;;;;;;;;;;5032803;28;20456;-59
2023/10/04 12:26:26;;;;;;;7.73;5.30;;;;;;;;;;5032508;28;20026;-58
2023/10/04 12:28:51;;;;;;;10.57;9.40;;;;;;;;;;5032279;28;20029;-61
2023/10/04 12:31:16;;;;;;;21.20;19.23;;;;;;;;;;5032397;28;20014;-61
2023/10/04 12:33:42;;;;;;;12.73;11.43;;;;;;;;;;5032512;28;20443;-59
2023/10/04 12:36:07;;;;;;;10.05;7.10;;;;;;;;;;5032569;28;20021;-58
2023/10/04 12:38:33;;;;;;;26.80;24.70;;;;;;;;;;5032567;28;20025;-59
2023/10/04 12:40:59;;;;;;;9.20;7.35;;;;;;;;;;5031971;28;20049;-60
2023/10/04 12:43:24;;;;;;;58.63;51.55;;;;;;;;;;5032191;28;20043;-59
2023/10/04 12:45:53;;;;;;;31.75;28.95;;;;;;;;;;5032261;28;20025;-60
2023/10/04 12:48:19;;;;;;;10.95;8.90;;;;;;;;;;5032310;28;20088;-59
2023/10/04 12:50:45;;;;;;;8.32;5.45;;;;;;;;;;5031675;28;20037;-59
2023/10/04 12:53:14;;;;;;;10.52;7.60;;;;;;;;;;5031997;28;20026;-59
2023/10/04 12:55:50;;;;;;;12.30;9.88;;;;;;;;;;5031258;28;20048;-61
2023/10/04 12:58:15;;;;;;;39.33;35.78;;;;;;;;;;5032197;28;20017;-61
2023/10/04 13:00:41;;;;;;;17.50;15.98;;;;;;;;;;5031729;28;20081;-59
2023/10/04 13:03:07;;;;;;;11.38;10.27;;;;;;;;;;5032018;28;20045;-60
2023/10/04 13:05:35;;;;;;;;;;;;;;;;;;5032467;28;20034;-59
2023/10/04 13:08:00;;;;;;;24.15;22.17;;;;;;;;;;5032557;28;19955;-60
2023/10/04 13:10:25;;;;;;;11.00;8.13;;;;;;;;;;5031797;28;20022;-60
2023/10/04 13:12:50;;;;;;;13.00;10.85;;;;;;;;;;5032697;28;20489;-59
2023/10/04 13:15:16;;;;;;;51.17;46.93;;;;;;;;;;5032907;28;20033;-59
2023/10/04 13:17:43;;;;;;;33.28;30.30;;;;;;;;;;5032606;28;20389;-60
2023/10/04 13:20:10;;;;;;;13.13;11.38;;;;;;;;;;5031775;28;20029;-60
2023/10/04 13:22:35;;;;;;;8.57;5.95;;;;;;;;;;5032413;28;20014;-59
2023/10/04 13:25:03;;;;;;;55.83;50.97;;;;;;;;;;5031991;28;20580;-59
2023/10/04 13:27:30;;;;;;;125.65;115.70;;;;;;;;;;5032633;28;20013;-59
2023/10/04 13:29:55;;;;;;;66.03;59.42;;;;;;;;;;5032352;28;20152;-58
2023/10/04 13:32:21;;;;;;;14.93;13.60;;;;;;;;;;5033729;28;20041;-59
2023/10/04 13:34:46;;;;;;;15.27;13.73;;;;;;;;;;5033435;28;20534;-60
2023/10/04 13:37:11;;;;;;;11.02;8.73;;;;;;;;;;5032296;28;20433;-58
2023/10/04 13:39:36;;;;;;;8.37;5.53;;;;;;;;;;5031116;28;20025;-61
2023/10/04 13:42:02;;;;;;;10.87;8.57;;;;;;;;;;5029861;28;20436;-60
2023/10/04 13:44:27;;;;;;;12.70;9.02;;;;;;;;;;5031218;28;21060;-60
2023/10/04 13:46:52;;;;;;;10.32;6.75;;;;;;;;;;5030876;28;20474;-60
2023/10/04 13:49:18;;;;;;;31.07;28.53;;;;;;;;;;5030736;28;20025;-62
2023/10/04 13:51:43;;;;;;;26.70;24.58;;;;;;;;;;5031276;28;20105;-60
2023/10/04 13:54:08;;;;;;;29.92;27.85;;;;;;;;;;5030938;28;20075;-61
2023/10/04 13:56:33;;;;;;;18.63;17.13;;;;;;;;;;5031356;28;20028;-60
2023/10/04 13:58:59;;;;;;;22.67;20.90;;;;;;;;;;5031466;28;20497;-59
2023/10/04 14:01:24;;;;;;;13.50;12.23;;;;;;;;;;5030971;28;20063;-59
2023/10/04 14:03:51;;;;;;;16.73;15.30;;;;;;;;;;5031283;28;20017;-60
2023/10/04 14:06:18;;;;;;;26.40;24.25;;;;;;;;;;5029705;28;20056;-59
2023/10/04 14:08:43;;;;;;;44.78;41.30;;;;;;;;;;5031057;28;20456;-61
2023/10/04 14:11:08;;;;;;;8.70;7.72;;;;;;;;;;5030626;28;20096;-60
2023/10/04 14:13:34;;;;;;;10.10;9.07;;;;;;;;;;5031288;28;20017;-60
2023/10/04 14:16:01;;;;;;;14.88;13.65;;;;;;;;;;5031166;28;20382;-61
2023/10/04 14:18:26;;;;;;;40.60;37.67;;;;;;;;;;5031028;28;20047;-59
2023/10/04 14:20:55;;;;;;;15.05;13.70;;;;;;;;;;5030462;28;20683;-61
2023/10/04 14:23:21;;;;;;;14.68;13.48;;;;;;;;;;5030697;28;20101;-61
2023/10/04 14:25:47;;;;;;;16.13;14.68;;;;;;;;;;5030856;28;20116;-60
2023/10/04 14:28:12;;;;;;;20.65;19.08;;;;;;;;;;5030720;28;20112;-61
2023/10/04 14:30:39;;;;;;;33.88;31.65;;;;;;;;;;5030379;28;20466;-60
2023/10/04 14:33:05;;;;;;;15.60;14.30;;;;;;;;;;5030775;28;20025;-60